createdAt,value
2023-04-25T00:02:20.893Z,9.00
2023-04-25T00:04:50.683Z,8.90
2023-04-25T00:07:17.828Z,8.90
2023-04-25T00:09:45.613Z,8.90
2023-04-25T00:12:12.478Z,8.80
2023-04-25T00:14:39.824Z,8.80
2023-04-25T00:17:07.135Z,8.70
2023-04-25T00:19:35.892Z,8.70
2023-04-25T00:22:03.529Z,8.70
2023-04-25T00:24:30.854Z,8.70
2023-04-25T00:26:57.744Z,8.70
2023-04-25T00:29:24.629Z,8.70
2023-04-25T00:31:51.520Z,8.80
2023-04-25T00:34:18.422Z,8.80
2023-04-25T00:36:45.977Z,8.70
2023-04-25T00:39:13.185Z,8.70
2023-04-25T00:41:40.784Z,8.60
2023-04-25T00:44:11.214Z,8.80
2023-04-25T00:46:38.332Z,8.70
2023-04-25T00:49:05.281Z,8.60
2023-04-25T00:51:33.991Z,8.70
2023-04-25T00:54:01.318Z,8.60
2023-04-25T00:56:28.211Z,8.60
2023-04-25T00:58:57.705Z,8.60
2023-04-25T01:01:24.687Z,8.60
2023-04-25T01:03:52.154Z,8.60
2023-04-25T01:06:19.618Z,8.60
2023-04-25T01:08:46.670Z,8.60
2023-04-25T01:11:13.500Z,8.60
2023-04-25T01:13:40.592Z,8.70
2023-04-25T01:16:07.717Z,8.60
2023-04-25T01:18:34.914Z,8.60
2023-04-25T01:21:12.784Z,8.50
2023-04-25T01:23:41.224Z,8.50
2023-04-25T01:26:12.291Z,8.60
2023-04-25T01:28:42.388Z,8.60
2023-04-25T01:31:10.366Z,8.70
2023-04-25T01:33:37.698Z,8.80
2023-04-25T01:36:05.388Z,8.80
2023-04-25T01:38:32.907Z,8.60
2023-04-25T01:41:00.109Z,8.50
2023-04-25T01:43:27.600Z,8.60
2023-04-25T01:45:54.747Z,8.60
2023-04-25T01:48:21.722Z,8.50
2023-04-25T01:50:48.666Z,8.60
2023-04-25T01:53:16.045Z,8.50
2023-04-25T01:55:42.888Z,8.50
2023-04-25T01:58:10.699Z,8.50
2023-04-25T02:00:42.020Z,8.30
2023-04-25T02:03:09.847Z,8.40
2023-04-25T02:05:38.774Z,8.50
2023-04-25T02:08:08.185Z,8.50
2023-04-25T02:10:35.830Z,8.50
2023-04-25T02:13:03.512Z,8.50
2023-04-25T02:15:30.757Z,8.40
2023-04-25T02:17:59.136Z,8.50
2023-04-25T02:20:26.827Z,8.60
2023-04-25T02:22:53.856Z,8.50
2023-04-25T02:25:21.109Z,8.20
2023-04-25T02:27:48.816Z,7.90
2023-04-25T02:30:16.501Z,7.80
2023-04-25T02:32:43.602Z,7.70
2023-04-25T02:35:10.974Z,7.70
2023-04-25T02:37:39.665Z,7.70
2023-04-25T02:40:07.920Z,7.70
2023-04-25T02:42:35.461Z,7.70
2023-04-25T02:45:03.282Z,7.70
2023-04-25T02:47:31.000Z,7.80
2023-04-25T02:49:58.047Z,7.80
2023-04-25T02:52:25.945Z,7.90
2023-04-25T02:54:52.889Z,7.90
2023-04-25T02:57:19.782Z,7.90
2023-04-25T02:59:46.745Z,8.00
2023-04-25T03:02:13.604Z,8.10
2023-04-25T03:04:41.163Z,8.10
2023-04-25T03:07:08.348Z,8.10
2023-04-25T03:09:35.795Z,8.10
2023-04-25T03:12:02.658Z,8.10
2023-04-25T03:14:29.602Z,8.10
2023-04-25T03:16:56.731Z,8.20
2023-04-25T03:19:23.657Z,8.20
2023-04-25T03:21:50.774Z,8.10
2023-04-25T03:24:17.714Z,8.10
2023-04-25T03:26:44.627Z,8.00
2023-04-25T03:29:11.506Z,8.00
2023-04-25T03:31:38.414Z,7.90
2023-04-25T03:34:05.535Z,7.90
2023-04-25T03:36:33.695Z,7.90
2023-04-25T03:39:01.051Z,7.90
2023-04-25T03:41:28.830Z,7.80
2023-04-25T03:43:55.774Z,7.80
2023-04-25T03:46:22.751Z,7.80
2023-04-25T03:48:49.719Z,7.80
2023-04-25T03:51:16.841Z,7.90
2023-04-25T03:53:43.839Z,7.80
2023-04-25T03:56:10.759Z,7.70
2023-04-25T03:58:37.696Z,7.70
2023-04-25T04:01:08.386Z,7.60
2023-04-25T04:03:39.329Z,7.60
2023-04-25T04:06:07.604Z,7.50
2023-04-25T04:08:34.821Z,7.50
2023-04-25T04:11:01.699Z,7.30
2023-04-25T04:13:29.778Z,7.30
2023-04-25T04:15:57.094Z,7.20
2023-04-25T04:18:24.033Z,7.20
2023-04-25T04:20:50.974Z,7.30
2023-04-25T04:23:17.898Z,7.30
2023-04-25T04:25:44.940Z,7.40
2023-04-25T04:28:12.173Z,7.40
2023-04-25T04:30:40.262Z,7.40
2023-04-25T04:33:08.437Z,7.50
2023-04-25T04:35:35.586Z,7.60
2023-04-25T04:38:02.458Z,7.50
2023-04-25T04:40:29.427Z,7.50
2023-04-25T04:42:57.566Z,7.50
2023-04-25T04:45:24.996Z,7.50
2023-04-25T04:47:52.141Z,7.50
2023-04-25T04:50:19.317Z,7.50
2023-04-25T04:52:46.244Z,7.50
2023-04-25T04:55:13.043Z,7.50
2023-04-25T04:57:40.546Z,7.60
2023-04-25T05:00:11.828Z,7.60
2023-04-25T05:02:39.958Z,7.70
2023-04-25T05:05:07.873Z,7.80
2023-04-25T05:07:35.450Z,7.80
2023-04-25T05:10:02.428Z,7.90
2023-04-25T05:12:29.385Z,7.90
2023-04-25T05:14:56.197Z,7.80
2023-04-25T05:17:23.133Z,7.80
2023-04-25T05:19:49.968Z,7.90
2023-04-25T05:22:17.273Z,8.00
2023-04-25T05:24:44.296Z,7.90
2023-04-25T05:27:11.132Z,7.90
2023-04-25T05:29:38.423Z,7.90
2023-04-25T05:32:06.604Z,7.90
2023-04-25T05:34:33.477Z,8.10
2023-04-25T05:37:00.459Z,8.00
2023-04-25T05:39:27.323Z,7.90
2023-04-25T05:41:54.173Z,7.90
2023-04-25T05:44:21.126Z,8.00
2023-04-25T05:46:48.538Z,7.90
2023-04-25T05:49:16.456Z,7.80
2023-04-25T05:51:45.024Z,7.80
2023-04-25T05:54:12.067Z,7.90
2023-04-25T05:56:38.868Z,8.10
2023-04-25T05:59:06.041Z,8.10
2023-04-25T06:01:33.030Z,8.10
2023-04-25T06:04:00.008Z,8.10
2023-04-25T06:06:27.906Z,8.20
2023-04-25T06:08:55.709Z,8.30
2023-04-25T06:11:22.556Z,8.30
2023-04-25T06:13:49.729Z,8.40
2023-04-25T06:16:16.802Z,8.30
2023-04-25T06:18:43.969Z,8.30
2023-04-25T06:21:10.897Z,8.30
2023-04-25T06:23:37.760Z,8.50
2023-04-25T06:26:04.819Z,8.50
2023-04-25T06:28:31.763Z,8.80
2023-04-25T06:30:58.779Z,8.80
2023-04-25T06:33:25.928Z,8.70
2023-04-25T06:35:52.773Z,8.70
2023-04-25T06:38:19.821Z,8.40
2023-04-25T06:40:46.623Z,8.30
2023-04-25T06:43:13.515Z,8.50
2023-04-25T06:45:40.544Z,8.60
2023-04-25T06:48:07.594Z,8.60
2023-04-25T06:50:35.701Z,8.70
2023-04-25T06:53:02.929Z,8.70
2023-04-25T06:55:29.767Z,8.70
2023-04-25T06:57:56.852Z,8.70
2023-04-25T07:00:23.898Z,8.80
2023-04-25T07:02:51.352Z,9.10
2023-04-25T07:05:19.386Z,9.10
2023-04-25T07:07:46.570Z,9.10
2023-04-25T07:10:13.442Z,9.10
2023-04-25T07:12:40.372Z,9.00
2023-04-25T07:15:09.121Z,8.90
2023-04-25T07:17:36.086Z,8.60
2023-04-25T07:20:04.615Z,8.70
2023-04-25T07:22:31.472Z,8.90
2023-04-25T07:24:58.352Z,9.00
2023-04-25T07:27:25.152Z,8.90
2023-04-25T07:29:52.196Z,8.60
2023-04-25T07:32:19.300Z,8.50
2023-04-25T07:34:46.288Z,8.80
2023-04-25T07:37:13.211Z,9.20
2023-04-25T07:39:40.350Z,9.50
2023-04-25T07:42:09.207Z,9.80
2023-04-25T07:44:39.995Z,9.80
2023-04-25T07:47:10.744Z,9.80
2023-04-25T07:49:38.328Z,9.80
2023-04-25T07:52:07.248Z,10.10
2023-04-25T07:54:34.111Z,10.20
2023-04-25T07:57:01.046Z,10.20
2023-04-25T07:59:30.025Z,10.40
2023-04-25T08:01:58.633Z,10.40
2023-04-25T08:04:26.871Z,10.30
2023-04-25T08:06:54.889Z,10.30
2023-04-25T08:09:22.465Z,10.40
2023-04-25T08:11:49.829Z,10.20
2023-04-25T08:14:16.725Z,9.80
2023-04-25T08:16:43.911Z,9.30
2023-04-25T08:19:12.122Z,9.30
2023-04-25T08:21:39.090Z,9.10
2023-04-25T08:24:06.130Z,8.80
2023-04-25T08:26:33.925Z,9.40
2023-04-25T08:29:01.197Z,10.00
2023-04-25T08:31:28.088Z,10.00
2023-04-25T08:33:55.376Z,10.20
2023-04-25T08:36:37.725Z,10.50
2023-04-25T08:39:06.100Z,10.60
2023-04-25T08:41:33.210Z,10.20
2023-04-25T08:44:02.146Z,10.30
2023-04-25T08:46:32.196Z,10.30
2023-04-25T08:49:02.296Z,10.80
2023-04-25T08:51:33.049Z,10.90
2023-04-25T08:56:46.222Z,10.70
2023-04-25T08:59:13.433Z,10.90
2023-04-25T09:01:40.953Z,11.30
2023-04-25T09:04:08.258Z,11.50
2023-04-25T09:06:36.113Z,11.70
2023-04-25T09:09:07.554Z,11.60
2023-04-25T09:11:36.928Z,12.10
2023-04-25T09:14:22.040Z,12.40
2023-04-25T09:16:57.981Z,12.40
2023-04-25T09:19:39.831Z,12.40
2023-04-25T09:22:08.524Z,12.10
2023-04-25T09:24:49.944Z,11.80
2023-04-25T09:27:24.105Z,11.40
2023-04-25T09:29:59.236Z,11.30
2023-04-25T09:32:26.939Z,11.70
2023-04-25T09:34:56.259Z,11.60
2023-04-25T09:37:28.792Z,11.70
2023-04-25T09:39:57.858Z,12.00
2023-04-25T09:42:26.351Z,11.90
2023-04-25T09:44:54.702Z,11.70
2023-04-25T09:47:24.543Z,11.30
2023-04-25T09:49:52.532Z,11.00
2023-04-25T09:52:24.579Z,11.10
2023-04-25T09:54:53.001Z,10.70
2023-04-25T09:57:22.551Z,10.20
2023-04-25T09:59:50.887Z,10.10
2023-04-25T10:05:08.942Z,10.30
2023-04-25T10:07:39.454Z,10.60
2023-04-25T10:10:07.433Z,10.90
2023-04-25T10:12:35.386Z,11.40
2023-04-25T10:15:04.130Z,11.80
2023-04-25T10:17:32.817Z,10.90
2023-04-25T10:20:04.079Z,10.60
2023-04-25T10:22:37.842Z,10.60
2023-04-25T10:25:05.987Z,10.40
2023-04-25T10:27:33.481Z,10.10
2023-04-25T10:30:17.069Z,10.20
2023-04-25T10:32:44.492Z,10.30
2023-04-25T10:35:34.588Z,10.10
2023-04-25T10:38:02.312Z,10.20
2023-04-25T10:40:29.413Z,10.40
2023-04-25T10:42:57.273Z,10.50
2023-04-25T10:45:24.874Z,10.30
2023-04-25T10:47:52.235Z,10.20
2023-04-25T10:50:21.345Z,10.30
2023-04-25T10:52:48.347Z,10.70
2023-04-25T10:55:15.624Z,11.30
2023-04-25T10:57:45.287Z,11.60
2023-04-25T11:00:17.967Z,11.50
2023-04-25T11:05:50.919Z,11.60
2023-04-25T11:08:49.232Z,11.50
2023-04-25T11:11:20.785Z,11.70
2023-04-25T11:13:52.186Z,12.20
2023-04-25T11:14:37.755Z,11.70
2023-04-25T11:16:27.652Z,12.10
2023-04-25T11:18:58.412Z,12.20
2023-04-25T11:21:29.087Z,12.10
2023-04-25T11:23:58.152Z,12.10
2023-04-25T11:26:27.287Z,12.00
2023-04-25T11:29:01.421Z,11.60
2023-04-25T11:31:28.640Z,11.80
2023-04-25T11:33:58.475Z,12.40
2023-04-25T11:36:27.044Z,12.50
2023-04-25T11:38:55.258Z,12.30
2023-04-25T11:41:23.536Z,12.50
2023-04-25T11:43:53.115Z,12.90
2023-04-25T11:46:21.594Z,13.00
2023-04-25T11:48:49.505Z,13.40
2023-04-25T11:51:20.901Z,13.00
2023-04-25T11:53:48.065Z,13.10
2023-04-25T11:56:16.295Z,12.10
2023-04-25T11:59:15.726Z,11.60
2023-04-25T12:01:50.799Z,11.50
2023-04-25T12:04:20.593Z,11.50
2023-04-25T12:06:49.367Z,11.70
2023-04-25T12:09:34.443Z,12.00
2023-04-25T12:12:05.260Z,12.00
2023-04-25T12:14:36.957Z,11.60
2023-04-25T12:17:07.579Z,12.30
2023-04-25T12:19:41.885Z,12.00
2023-04-25T12:22:23.882Z,11.80
2023-04-25T12:24:51.195Z,11.30
2023-04-25T12:27:20.312Z,11.60
2023-04-25T12:29:55.790Z,11.50
2023-04-25T12:32:23.592Z,12.10
2023-04-25T12:34:51.023Z,12.10
2023-04-25T12:37:19.877Z,12.40
2023-04-25T12:39:47.331Z,12.40
2023-04-25T12:42:14.603Z,11.80
2023-04-25T12:44:42.565Z,11.50
2023-04-25T12:47:09.972Z,11.70
2023-04-25T12:49:36.974Z,11.50
2023-04-25T12:52:04.320Z,11.60
2023-04-25T12:54:32.303Z,12.30
2023-04-25T12:56:59.521Z,12.50
2023-04-25T12:59:26.722Z,12.30
2023-04-25T13:01:54.189Z,12.10
2023-04-25T13:04:22.423Z,12.00
2023-04-25T13:06:49.894Z,12.50
2023-04-25T13:09:17.036Z,13.10
2023-04-25T13:11:44.642Z,12.90
2023-04-25T13:14:11.855Z,12.50
2023-04-25T13:16:39.174Z,13.00
2023-04-25T13:19:08.879Z,13.30
2023-04-25T13:21:36.293Z,13.10
2023-04-25T13:24:03.556Z,13.30
2023-04-25T13:26:30.782Z,12.70
2023-04-25T13:28:58.451Z,12.90
2023-04-25T13:31:26.071Z,13.00
2023-04-25T13:33:53.587Z,12.70
2023-04-25T13:36:23.160Z,13.20
2023-04-25T13:38:50.926Z,12.80
2023-04-25T13:41:20.056Z,12.60
2023-04-25T13:43:49.313Z,12.10
2023-04-25T13:46:35.344Z,12.30
2023-04-25T13:49:12.325Z,12.10
2023-04-25T13:51:41.190Z,11.80
2023-04-25T13:54:08.825Z,12.00
2023-04-25T13:56:36.413Z,12.30
2023-04-25T13:59:04.066Z,11.80
2023-04-25T14:01:35.513Z,11.80
2023-04-25T14:04:05.152Z,12.00
2023-04-25T14:06:33.291Z,12.20
2023-04-25T14:09:02.458Z,12.30
2023-04-25T14:11:29.705Z,12.60
2023-04-25T14:13:56.883Z,12.90
2023-04-25T14:16:24.753Z,12.60
2023-04-25T14:18:52.112Z,12.70
2023-04-25T14:21:19.277Z,12.40
2023-04-25T14:23:47.942Z,12.00
2023-04-25T14:26:18.463Z,11.60
2023-04-25T14:28:48.693Z,12.00
2023-04-25T14:31:15.851Z,11.90
2023-04-25T14:33:44.788Z,12.00
2023-04-25T14:36:12.237Z,11.60
2023-04-25T14:38:39.507Z,11.60
2023-04-25T14:41:09.429Z,11.60
2023-04-25T14:43:37.670Z,12.00
2023-04-25T14:46:05.271Z,12.30
2023-04-25T14:48:32.459Z,12.20
2023-04-25T14:51:03.162Z,12.20
2023-04-25T14:53:30.719Z,12.10
2023-04-25T14:55:57.769Z,12.40
2023-04-25T14:58:25.025Z,12.10
2023-04-25T15:00:52.394Z,11.80
2023-04-25T15:03:20.154Z,11.70
2023-04-25T15:05:47.419Z,11.80
2023-04-25T15:08:14.768Z,11.90
2023-04-25T15:10:41.830Z,12.00
2023-04-25T15:13:09.037Z,12.20
2023-04-25T15:15:36.079Z,11.40
2023-04-25T15:18:04.381Z,11.30
2023-04-25T15:20:31.884Z,11.40
2023-04-25T15:22:59.674Z,11.10
2023-04-25T15:25:27.470Z,10.80
2023-04-25T15:27:56.106Z,10.80
2023-04-25T15:30:23.464Z,11.00
2023-04-25T15:32:50.958Z,10.90
2023-04-25T15:35:17.981Z,11.00
2023-04-25T15:37:45.197Z,11.10
2023-04-25T15:40:16.542Z,11.20
2023-04-25T15:42:49.272Z,10.80
2023-04-25T15:45:18.130Z,10.80
2023-04-25T15:47:46.134Z,10.70
2023-04-25T15:50:16.262Z,10.50
2023-04-25T15:52:44.036Z,10.70
2023-04-25T15:55:14.561Z,11.30
2023-04-25T15:57:42.664Z,10.90
2023-04-25T16:00:13.724Z,11.00
2023-04-25T16:02:42.054Z,10.90
2023-04-25T16:05:11.479Z,11.00
2023-04-25T16:07:40.255Z,10.80
2023-04-25T16:10:08.031Z,10.70
2023-04-25T16:12:35.804Z,10.60
2023-04-25T16:15:03.477Z,10.60
2023-04-25T16:17:30.891Z,10.70
2023-04-25T16:20:02.698Z,10.80
2023-04-25T16:22:30.008Z,10.50
2023-04-25T16:24:57.011Z,10.60
2023-04-25T16:27:24.169Z,10.90
2023-04-25T16:29:51.829Z,11.10
2023-04-25T16:32:19.349Z,11.20
2023-04-25T16:34:49.167Z,10.80
2023-04-25T16:37:16.361Z,10.90
2023-04-25T16:39:43.667Z,11.20
2023-04-25T16:42:11.088Z,11.50
2023-04-25T16:44:38.665Z,11.00
2023-04-25T16:47:06.431Z,11.10
2023-04-25T16:49:34.239Z,11.40
2023-04-25T16:52:01.321Z,11.60
2023-04-25T16:54:28.548Z,11.50
2023-04-25T16:56:55.964Z,11.60
2023-04-25T16:59:23.054Z,11.10
2023-04-25T17:01:50.580Z,10.90
2023-04-25T17:04:18.133Z,10.60
2023-04-25T17:06:45.406Z,10.80
2023-04-25T17:09:12.445Z,10.50
2023-04-25T17:11:39.696Z,10.50
2023-04-25T17:14:07.178Z,10.70
2023-04-25T17:16:36.746Z,10.40
2023-04-25T17:19:07.855Z,10.90
2023-04-25T17:21:38.064Z,11.30
2023-04-25T17:24:09.966Z,11.30
2023-04-25T17:26:37.342Z,10.80
2023-04-25T17:29:06.199Z,11.20
2023-04-25T17:31:33.765Z,10.80
2023-04-25T17:34:00.906Z,11.10
2023-04-25T17:36:28.306Z,11.40
2023-04-25T17:38:55.440Z,11.70
2023-04-25T17:41:22.642Z,11.70
2023-04-25T17:43:50.079Z,11.60
2023-04-25T17:46:17.346Z,11.40
2023-04-25T17:48:44.545Z,11.40
2023-04-25T17:51:11.688Z,11.30
2023-04-25T17:53:38.818Z,11.80
2023-04-25T17:56:15.800Z,11.60
2023-04-25T17:58:53.265Z,11.00
2023-04-25T18:01:20.923Z,10.50
2023-04-25T18:03:50.367Z,10.20
2023-04-25T18:06:18.531Z,10.00
2023-04-25T18:08:47.676Z,9.80
2023-04-25T18:11:15.104Z,9.90
2023-04-25T18:13:43.005Z,9.90
2023-04-25T18:16:10.388Z,9.80
2023-04-25T18:18:38.321Z,9.70
2023-04-25T18:21:07.962Z,9.50
2023-04-25T18:23:35.874Z,9.30
2023-04-25T18:26:04.417Z,9.00
2023-04-25T18:28:34.239Z,9.00
2023-04-25T18:31:01.591Z,8.90
2023-04-25T18:33:28.833Z,9.00
2023-04-25T18:35:59.129Z,9.00
2023-04-25T18:41:13.082Z,8.90
2023-04-25T18:43:46.914Z,8.80
2023-04-25T18:46:14.490Z,8.80
2023-04-25T18:48:41.763Z,8.70
2023-04-25T18:51:09.227Z,8.70
2023-04-25T18:53:37.539Z,8.70
2023-04-25T18:56:05.085Z,8.70
2023-04-25T18:58:32.733Z,8.70
2023-04-25T19:01:04.301Z,8.70
2023-04-25T19:03:31.845Z,8.60
2023-04-25T19:06:02.446Z,8.60
2023-04-25T19:08:29.511Z,8.70
2023-04-25T19:10:57.635Z,8.60
2023-04-25T19:13:25.433Z,8.60
2023-04-25T19:15:52.538Z,8.60
2023-04-25T19:18:19.650Z,8.50
2023-04-25T19:20:46.915Z,8.50
2023-04-25T19:23:14.149Z,8.40
2023-04-25T19:25:41.622Z,8.30
2023-04-25T19:28:12.039Z,8.30
2023-04-25T19:30:39.415Z,8.30
2023-04-25T19:33:06.453Z,8.30
2023-04-25T19:35:33.761Z,8.30
2023-04-25T19:38:01.280Z,8.20
2023-04-25T19:40:31.153Z,8.20
2023-04-25T19:42:58.670Z,8.10
2023-04-25T19:45:25.971Z,8.10
2023-04-25T19:47:54.090Z,8.10
2023-04-25T19:50:21.846Z,8.10
2023-04-25T19:52:49.113Z,8.10
2023-04-25T19:55:16.235Z,8.10
2023-04-25T19:57:43.284Z,8.10
2023-04-25T20:02:52.971Z,7.90
2023-04-25T20:05:20.146Z,7.90
2023-04-25T20:07:47.344Z,8.00
2023-04-25T20:10:15.999Z,7.90
2023-04-25T20:12:44.427Z,7.80
2023-04-25T20:15:11.945Z,7.80
2023-04-25T20:17:42.742Z,7.70
2023-04-25T20:20:11.552Z,7.70
2023-04-25T20:22:40.738Z,7.70
2023-04-25T20:25:09.971Z,7.70
2023-04-25T20:27:40.161Z,7.70
2023-04-25T20:30:08.445Z,7.60
2023-04-25T20:32:37.886Z,7.60
2023-04-25T20:35:07.958Z,7.70
2023-04-25T20:37:35.889Z,7.60
2023-04-25T20:40:05.695Z,7.50
2023-04-25T20:42:33.063Z,7.50
2023-04-25T20:45:01.260Z,7.50
2023-04-25T20:47:29.543Z,7.40
2023-04-25T20:49:57.803Z,7.40
2023-04-25T20:52:25.174Z,7.50
2023-04-25T20:54:54.272Z,7.50
2023-04-25T20:57:21.665Z,7.50
2023-04-25T20:59:49.619Z,7.50
2023-04-25T21:02:18.168Z,7.50
2023-04-25T21:04:45.908Z,7.50
2023-04-25T21:07:14.106Z,7.50
2023-04-25T21:09:42.782Z,7.50
2023-04-25T21:12:10.335Z,7.50
2023-04-25T21:14:37.543Z,7.50
2023-04-25T21:17:07.828Z,7.40
2023-04-25T21:19:35.010Z,7.40
2023-04-25T21:22:03.826Z,7.40
2023-04-25T21:24:33.534Z,7.40
2023-04-25T21:27:01.724Z,7.40
2023-04-25T21:29:29.078Z,7.40
2023-04-25T21:31:58.883Z,7.30
2023-04-25T21:34:26.926Z,7.20
2023-04-25T21:36:54.242Z,7.10
2023-04-25T21:39:21.338Z,7.10
2023-04-25T21:41:48.538Z,7.00
2023-04-25T21:44:15.999Z,7.10
2023-04-25T21:46:43.282Z,7.10
2023-04-25T21:49:10.501Z,7.00
2023-04-25T21:51:37.760Z,7.00
2023-04-25T21:54:05.919Z,7.10
2023-04-25T21:56:33.359Z,7.00
2023-04-25T21:59:00.895Z,7.10
2023-04-25T22:01:28.833Z,7.00
2023-04-25T22:03:56.244Z,7.00
2023-04-25T22:06:23.865Z,7.00
2023-04-25T22:08:51.568Z,7.00
2023-04-25T22:11:19.172Z,6.90
2023-04-25T22:13:47.387Z,7.00
2023-04-25T22:16:14.963Z,7.00
2023-04-25T22:18:42.459Z,7.00
2023-04-25T22:21:10.370Z,7.00
2023-04-25T22:23:37.552Z,7.00
2023-04-25T22:26:05.216Z,7.00
2023-04-25T22:28:33.287Z,7.00
2023-04-25T22:31:00.587Z,7.10
2023-04-25T22:33:27.583Z,7.10
2023-04-25T22:35:54.598Z,7.00
2023-04-25T22:38:22.206Z,6.90
2023-04-25T22:40:49.471Z,6.80
2023-04-25T22:43:16.783Z,6.80
2023-04-25T22:45:44.148Z,6.80
2023-04-25T22:48:11.556Z,6.80
2023-04-25T22:50:41.111Z,6.80
2023-04-25T22:53:10.509Z,6.80
2023-04-25T22:55:37.672Z,6.80
2023-04-25T22:58:05.187Z,6.80
2023-04-25T23:00:34.494Z,6.80
2023-04-25T23:03:04.312Z,6.80
2023-04-25T23:05:33.246Z,6.80
2023-04-25T23:08:00.662Z,6.70
2023-04-25T23:10:28.940Z,6.70
2023-04-25T23:12:58.335Z,6.70
2023-04-25T23:15:27.856Z,6.70
2023-04-25T23:17:55.064Z,6.80
2023-04-25T23:20:22.325Z,6.70
2023-04-25T23:22:50.054Z,6.70
2023-04-25T23:25:18.369Z,6.70
2023-04-25T23:27:45.750Z,6.70
2023-04-25T23:30:13.713Z,6.70
2023-04-25T23:32:41.225Z,6.80
2023-04-25T23:35:09.602Z,6.80
2023-04-25T23:37:37.771Z,6.90
2023-04-25T23:40:08.695Z,6.80
2023-04-25T23:42:37.464Z,6.80
2023-04-25T23:45:06.386Z,6.60
2023-04-25T23:47:34.429Z,6.50
2023-04-25T23:50:02.452Z,6.60
2023-04-25T23:52:30.020Z,6.60
2023-04-25T23:54:57.331Z,6.60
2023-04-25T23:57:24.488Z,6.50
2023-04-25T23:59:52.082Z,6.30
